Time;durP1;ratioP1;P1;durP2;ratioP2;P2;SDS_P1;SDS_P2;PMS_P1;PMS_P2;Temp;Humidity;BMP_temperature;BMP_pressure;BME280_temperature;BME280_humidity;BME280_pressure;Samples;Min_cycle;Max_cycle;Signal;HPM_P1;HPM_P2
2023/08/15 00:02:15;;;;;;;6.00;5.90;;;22.10;99.90;;;;;;5019140;28;20833;-67
2023/08/15 00:04:43;;;;;;;5.90;5.80;;;22.10;99.90;;;;;;5027284;28;20468;-67
2023/08/15 00:07:10;;;;;;;6.00;5.90;;;22.10;99.90;;;;;;5020676;28;20983;-68
2023/08/15 00:09:36;;;;;;;4.83;4.83;;;22.20;99.90;;;;;;5024173;28;20501;-67
2023/08/15 00:12:04;;;;;;;5.10;5.10;;;22.10;99.90;;;;;;5027226;28;20480;-67
2023/08/15 00:14:30;;;;;;;5.10;5.10;;;22.20;99.90;;;;;;5028455;28;20464;-67
2023/08/15 00:16:59;;;;;;;5.10;5.10;;;22.20;99.90;;;;;;5015132;28;20484;-67
2023/08/15 00:19:27;;;;;;;4.73;4.73;;;22.30;99.90;;;;;;5018114;28;20541;-68
2023/08/15 00:21:55;;;;;;;5.30;5.20;;;22.30;99.90;;;;;;5026375;28;20452;-67
2023/08/15 00:24:22;;;;;;;5.70;5.60;;;22.30;99.90;;;;;;5028065;28;20469;-67
2023/08/15 00:26:48;;;;;;;5.33;5.23;;;22.40;99.90;;;;;;5021017;28;20503;-67
2023/08/15 00:29:15;;;;;;;5.40;5.30;;;22.50;99.90;;;;;;5028025;28;20449;-68
2023/08/15 00:31:42;;;;;;;5.80;5.70;;;22.50;99.90;;;;;;5024044;28;20465;-67
2023/08/15 00:34:10;;;;;;;5.70;5.60;;;22.60;99.90;;;;;;5017626;28;20469;-67
2023/08/15 00:36:38;;;;;;;5.67;5.57;;;22.70;99.90;;;;;;5020664;28;20464;-68
2023/08/15 00:39:05;;;;;;;5.80;5.70;;;22.70;99.90;;;;;;5027724;28;20461;-67
2023/08/15 00:41:31;;;;;;;5.70;5.60;;;22.70;99.90;;;;;;5021997;28;20465;-67
2023/08/15 00:43:59;;;;;;;5.60;5.50;;;22.70;99.90;;;;;;5022523;28;20847;-68
2023/08/15 00:46:27;;;;;;;6.00;5.90;;;22.70;99.90;;;;;;5017307;28;20493;-68
2023/08/15 00:48:54;;;;;;;6.17;6.07;;;22.80;99.90;;;;;;5020905;28;20464;-67
2023/08/15 00:51:39;;;;;;;6.13;6.03;;;22.80;99.90;;;;;;5016495;28;20863;-68
2023/08/15 00:54:07;;;;;;;6.53;6.43;;;22.80;99.90;;;;;;5019071;28;20636;-67
2023/08/15 00:56:34;;;;;;;6.63;6.53;;;22.90;99.90;;;;;;5010319;28;20473;-67
2023/08/15 00:59:02;;;;;;;6.57;6.47;;;22.90;99.90;;;;;;5011918;28;20839;-68
2023/08/15 01:01:29;;;;;;;6.90;6.80;;;22.90;99.90;;;;;;5011160;28;20457;-66
2023/08/15 01:03:55;;;;;;;6.97;6.87;;;22.90;99.90;;;;;;5002446;28;20497;-67
2023/08/15 01:06:22;;;;;;;6.50;6.40;;;23.00;99.90;;;;;;5005019;28;20489;-67
2023/08/15 01:08:50;;;;;;;6.60;6.50;;;22.90;99.90;;;;;;5004618;28;20956;-67
2023/08/15 01:11:18;;;;;;;6.50;6.40;;;22.90;99.90;;;;;;5011657;28;20944;-68
2023/08/15 01:13:51;;;;;;;6.80;6.70;;;23.10;99.90;;;;;;5002428;28;20573;-67
2023/08/15 01:16:24;;;;;;;6.70;6.60;;;23.10;99.90;;;;;;5011528;28;20529;-68
2023/08/15 01:18:56;;;;;;;6.70;6.60;;;23.10;99.90;;;;;;5003834;28;20465;-68
2023/08/15 01:21:33;;;;;;;6.57;6.47;;;23.00;99.90;;;;;;4994483;28;20470;-67
2023/08/15 01:24:02;;;;;;;6.70;6.60;;;23.10;99.90;;;;;;5011098;28;20782;-67
2023/08/15 01:26:28;;;;;;;6.90;6.80;;;23.00;99.90;;;;;;5010978;28;20503;-68
2023/08/15 01:28:55;;;;;;;7.00;6.90;;;23.10;99.90;;;;;;5010277;28;20896;-68
2023/08/15 01:31:28;;;;;;;6.60;6.50;;;23.10;99.90;;;;;;5015017;28;20461;-67
2023/08/15 01:34:03;;;;;;;6.73;6.63;;;23.20;99.90;;;;;;5011280;28;20457;-68
2023/08/15 01:36:33;;;;;;;6.80;6.70;;;23.10;99.90;;;;;;5010931;28;20532;-66
2023/08/15 01:39:05;;;;;;;6.50;6.40;;;23.00;99.90;;;;;;5002589;28;20970;-67
2023/08/15 01:41:36;;;;;;;6.80;6.70;;;23.10;99.90;;;;;;5001598;28;20822;-67
2023/08/15 01:44:04;;;;;;;6.50;6.40;;;23.00;99.90;;;;;;5005355;28;20464;-67
2023/08/15 01:46:32;;;;;;;6.87;6.77;;;23.00;99.90;;;;;;5008908;28;20492;-68
2023/08/15 01:48:59;;;;;;;6.30;6.20;;;23.00;99.90;;;;;;5010721;28;20874;-67
2023/08/15 01:51:26;;;;;;;6.60;6.50;;;22.90;99.90;;;;;;5010796;28;20465;-67
2023/08/15 01:53:53;;;;;;;6.57;6.47;;;22.90;99.90;;;;;;5014563;28;20480;-67
2023/08/15 01:56:21;;;;;;;6.40;6.30;;;23.00;99.90;;;;;;5018973;28;20495;-67
2023/08/15 01:58:49;;;;;;;6.07;5.97;;;23.10;99.90;;;;;;5028675;28;20527;-67
2023/08/15 02:01:16;;;;;;;6.07;5.97;;;23.10;99.90;;;;;;5034777;28;20472;-67
2023/08/15 02:03:43;;;;;;;6.13;6.03;;;23.10;99.90;;;;;;5025115;28;20471;-67
2023/08/15 02:06:10;;;;;;;5.77;5.67;;;23.20;99.90;;;;;;5029041;28;20504;-67
2023/08/15 02:08:37;;;;;;;5.50;5.40;;;23.20;99.90;;;;;;5022460;28;20465;-67
2023/08/15 02:11:03;;;;;;;5.43;5.33;;;23.20;99.90;;;;;;5021599;28;20461;-66
2023/08/15 02:13:33;;;;;;;5.30;5.20;;;23.20;99.90;;;;;;5021570;28;20481;-68
2023/08/15 02:16:00;;;;;;;5.30;5.20;;;23.20;99.90;;;;;;5030039;28;20551;-67
2023/08/15 02:18:27;;;;;;;5.50;5.40;;;23.20;99.90;;;;;;5025514;28;20496;-67
2023/08/15 02:20:54;;;;;;;5.40;5.30;;;23.20;99.90;;;;;;5028233;28;20967;-67
2023/08/15 02:23:21;;;;;;;5.60;5.50;;;23.20;99.90;;;;;;5018420;28;20462;-65
2023/08/15 02:25:49;;;;;;;11.60;11.30;;;23.20;99.90;;;;;;5025343;28;20488;-67
2023/08/15 02:28:15;;;;;;;14.03;13.53;;;23.10;99.90;;;;;;5030037;28;20803;-67
2023/08/15 02:30:44;;;;;;;16.70;15.90;;;22.90;99.90;;;;;;5034448;28;20459;-67
2023/08/15 02:33:10;;;;;;;16.53;15.73;;;22.70;99.90;;;;;;5017536;28;20457;-67
2023/08/15 02:35:39;;;;;;;15.70;15.00;;;22.50;99.90;;;;;;5023733;28;20468;-65
2023/08/15 02:38:06;;;;;;;14.83;14.23;;;22.10;99.90;;;;;;5021808;28;20511;-66
2023/08/15 02:40:33;;;;;;;13.40;12.90;;;22.00;99.90;;;;;;5019509;28;20467;-66
2023/08/15 02:42:59;;;;;;;12.60;12.20;;;21.80;99.90;;;;;;5025211;28;20464;-66
2023/08/15 02:45:26;;;;;;;11.60;11.30;;;21.60;99.90;;;;;;5029616;28;21007;-66
2023/08/15 02:47:55;;;;;;;11.53;11.23;;;21.50;99.90;;;;;;5023231;28;20500;-66
2023/08/15 02:50:22;;;;;;;11.80;11.50;;;21.40;99.90;;;;;;5021290;28;20522;-68
2023/08/15 02:52:49;;;;;;;11.10;10.80;;;21.30;99.90;;;;;;5029458;28;20468;-66
2023/08/15 02:55:16;;;;;;;10.60;10.40;;;21.30;99.90;;;;;;5021739;28;20484;-67
2023/08/15 02:57:43;;;;;;;10.20;10.00;;;21.20;99.90;;;;;;5019880;28;20476;-67
2023/08/15 03:00:11;;;;;;;10.43;10.23;;;21.10;99.90;;;;;;5021151;28;20457;-68
2023/08/15 03:02:39;;;;;;;9.20;9.00;;;21.10;99.90;;;;;;5028705;28;21073;-66
2023/08/15 03:05:08;;;;;;;8.70;8.60;;;20.90;99.90;;;;;;5029326;28;20974;-67
2023/08/15 03:07:35;;;;;;;9.23;9.10;;;20.90;99.90;;;;;;5024744;28;20488;-66
2023/08/15 03:10:03;;;;;;;8.80;8.70;;;20.90;99.90;;;;;;5021072;28;20492;-67
2023/08/15 03:12:29;;;;;;;8.70;8.60;;;20.90;99.90;;;;;;5028325;28;21041;-67
2023/08/15 03:14:57;;;;;;;8.10;8.00;;;20.80;99.90;;;;;;5019341;28;20515;-67
2023/08/15 03:17:25;;;;;;;8.43;8.33;;;20.80;99.90;;;;;;5020936;28;20576;-67
2023/08/15 03:19:53;;;;;;;8.07;7.97;;;20.60;99.90;;;;;;5028568;28;20871;-66
2023/08/15 03:22:21;;;;;;;8.40;8.30;;;20.50;99.90;;;;;;5028437;28;20496;-65
2023/08/15 03:24:49;;;;;;;8.20;8.10;;;20.40;99.90;;;;;;5025256;28;20469;-67
2023/08/15 03:27:16;;;;;;;8.70;8.60;;;20.40;99.90;;;;;;5021237;28;20498;-66
2023/08/15 03:29:41;;;;;;;8.37;8.27;;;20.30;99.90;;;;;;5026961;28;21066;-67
2023/08/15 03:32:08;;;;;;;8.73;8.63;;;20.10;99.90;;;;;;5022143;28;20555;-66
2023/08/15 03:34:35;;;;;;;8.97;8.87;;;20.00;99.90;;;;;;5013808;28;20202;-67
2023/08/15 03:37:02;;;;;;;8.70;8.60;;;20.00;99.90;;;;;;5015271;28;20469;-66
2023/08/15 03:39:31;;;;;;;8.80;8.70;;;20.00;99.90;;;;;;5021315;28;20472;-66
2023/08/15 03:41:58;;;;;;;9.40;9.20;;;20.00;99.90;;;;;;5020048;28;20473;-66
2023/08/15 03:44:25;;;;;;;9.10;8.90;;;20.00;99.90;;;;;;5028422;28;20457;-67
2023/08/15 03:46:52;;;;;;;8.87;8.77;;;20.00;99.90;;;;;;5025026;28;20864;-67
2023/08/15 03:49:19;;;;;;;9.00;8.80;;;20.00;99.90;;;;;;5020093;28;20476;-67
2023/08/15 03:51:45;;;;;;;8.10;8.00;;;20.00;99.90;;;;;;5025169;28;20449;-66
2023/08/15 03:54:13;;;;;;;8.80;8.60;;;19.90;99.90;;;;;;5016025;28;20497;-67
2023/08/15 03:56:42;;;;;;;8.13;8.03;;;19.90;99.90;;;;;;5026702;28;20467;-67
2023/08/15 03:59:09;;;;;;;8.30;8.20;;;19.90;99.90;;;;;;5022220;28;20473;-67
2023/08/15 04:01:35;;;;;;;8.60;8.40;;;19.90;99.90;;;;;;5033935;28;20456;-66
2023/08/15 04:04:03;;;;;;;8.40;8.30;;;19.90;99.90;;;;;;5023697;28;21065;-65
2023/08/15 04:06:29;;;;;;;8.27;8.17;;;19.90;99.90;;;;;;5021705;28;20476;-68
2023/08/15 04:08:56;;;;;;;8.83;8.63;;;19.90;99.90;;;;;;5025596;28;20461;-66
2023/08/15 04:11:23;;;;;;;9.47;9.17;;;19.90;99.90;;;;;;5028568;28;20472;-64
2023/08/15 04:13:51;;;;;;;7.80;7.70;;;20.00;99.90;;;;;;5022156;28;20488;-66
2023/08/15 04:16:18;;;;;;;8.13;7.93;;;19.90;99.90;;;;;;5019145;28;21034;-65
2023/08/15 04:18:44;;;;;;;7.67;7.57;;;19.90;99.90;;;;;;5021937;28;20944;-66
2023/08/15 04:21:12;;;;;;;8.00;7.90;;;19.90;99.90;;;;;;5021196;28;20457;-66
2023/08/15 04:23:39;;;;;;;7.70;7.50;;;20.00;99.90;;;;;;5025956;28;20499;-66
2023/08/15 04:26:07;;;;;;;8.00;7.80;;;20.00;99.90;;;;;;5016576;28;20484;-66
2023/08/15 04:28:34;;;;;;;8.10;7.90;;;20.00;99.90;;;;;;5027848;28;20552;-66
2023/08/15 04:31:03;;;;;;;8.50;8.30;;;20.00;99.90;;;;;;5040030;28;20466;-65
2023/08/15 04:33:30;;;;;;;8.20;8.00;;;20.10;99.90;;;;;;5030097;28;20456;-67
2023/08/15 04:35:57;;;;;;;8.07;7.87;;;20.00;99.90;;;;;;5022314;28;20468;-66
2023/08/15 04:38:23;;;;;;;9.40;9.10;;;20.10;99.90;;;;;;5032481;28;20543;-68
2023/08/15 04:40:51;;;;;;;8.80;8.60;;;20.10;99.90;;;;;;5028986;28;21059;-65
2023/08/15 04:43:18;;;;;;;9.70;9.50;;;20.00;99.90;;;;;;5022815;28;20669;-66
2023/08/15 04:45:44;;;;;;;10.43;10.13;;;19.90;99.90;;;;;;5021319;28;20974;-67
2023/08/15 04:48:13;;;;;;;11.10;10.80;;;19.80;99.90;;;;;;5022345;28;20494;-66
2023/08/15 04:50:41;;;;;;;12.00;11.60;;;19.70;99.90;;;;;;5025335;28;20475;-65
2023/08/15 04:53:08;;;;;;;12.40;12.00;;;19.70;99.90;;;;;;5031608;28;20479;-66
2023/08/15 04:55:35;;;;;;;11.60;11.20;;;19.70;99.90;;;;;;4998567;28;20463;-65
2023/08/15 04:58:02;;;;;;;12.10;11.70;;;19.60;99.90;;;;;;5012087;28;20454;-66
2023/08/15 05:00:29;;;;;;;11.40;11.00;;;19.60;99.90;;;;;;5015070;28;20461;-65
2023/08/15 05:02:56;;;;;;;11.90;11.50;;;19.50;99.90;;;;;;5002816;28;20956;-65
2023/08/15 05:05:24;;;;;;;12.97;12.47;;;19.40;99.90;;;;;;5010261;28;21024;-66
2023/08/15 05:07:51;;;;;;;12.50;12.10;;;19.30;99.90;;;;;;5003746;28;20572;-67
2023/08/15 05:10:17;;;;;;;12.07;11.67;;;19.20;99.90;;;;;;5003033;28;20464;-67
2023/08/15 05:12:45;;;;;;;11.57;11.17;;;19.20;99.90;;;;;;5007101;28;21196;-67
2023/08/15 05:15:12;;;;;;;11.90;11.50;;;19.00;99.90;;;;;;5004079;28;20460;-66
2023/08/15 05:17:38;;;;;;;12.00;11.60;;;19.00;99.90;;;;;;4997668;28;20464;-67
2023/08/15 05:20:07;;;;;;;12.90;12.40;;;18.90;99.90;;;;;;5003792;28;20485;-67
2023/08/15 05:22:36;;;;;;;12.30;11.90;;;18.80;99.90;;;;;;5011061;28;21000;-65
2023/08/15 05:25:03;;;;;;;12.30;11.80;;;18.80;99.90;;;;;;5009792;28;20942;-67
2023/08/15 05:27:30;;;;;;;11.80;11.40;;;18.80;99.90;;;;;;5004934;28;20568;-65
2023/08/15 05:29:57;;;;;;;12.20;11.70;;;18.80;99.90;;;;;;5008721;28;21051;-66
2023/08/15 05:32:24;;;;;;;12.20;11.70;;;18.80;99.90;;;;;;4998143;28;20816;-67
2023/08/15 05:34:51;;;;;;;11.90;11.50;;;18.80;99.90;;;;;;5000521;28;20965;-66
2023/08/15 05:37:18;;;;;;;12.87;12.37;;;18.80;99.90;;;;;;5009808;28;20572;-65
2023/08/15 05:39:47;;;;;;;11.60;11.20;;;18.70;99.90;;;;;;5008640;28;20956;-66
2023/08/15 05:42:17;;;;;;;11.50;11.10;;;18.70;99.90;;;;;;5003134;28;20458;-66
2023/08/15 05:44:44;;;;;;;12.20;11.73;;;18.60;99.90;;;;;;5008751;28;20465;-65
2023/08/15 05:47:11;;;;;;;11.70;11.30;;;18.70;99.90;;;;;;5002683;28;20489;-66
2023/08/15 05:49:38;;;;;;;11.70;11.20;;;18.70;99.90;;;;;;5006653;28;20537;-66
2023/08/15 05:52:06;;;;;;;12.10;11.60;;;18.70;99.90;;;;;;4998715;28;20462;-66
2023/08/15 05:54:32;;;;;;;12.10;11.60;;;18.70;99.90;;;;;;5019439;28;20485;-67
2023/08/15 05:57:01;;;;;;;11.40;11.00;;;18.90;99.90;;;;;;5028795;28;20902;-65
2023/08/15 05:59:28;;;;;;;11.60;11.20;;;18.90;99.90;;;;;;5030349;28;20956;-66
2023/08/15 06:01:54;;;;;;;11.20;10.80;;;18.90;99.90;;;;;;5023258;28;20940;-66
2023/08/15 06:04:21;;;;;;;11.30;10.90;;;18.90;99.90;;;;;;5028033;28;20971;-67
2023/08/15 06:06:48;;;;;;;11.30;10.90;;;18.90;99.90;;;;;;5028165;28;20456;-66
2023/08/15 06:09:16;;;;;;;11.50;11.10;;;18.90;99.90;;;;;;5035837;28;20971;-66
2023/08/15 06:11:42;;;;;;;10.80;10.40;;;19.00;99.90;;;;;;5034898;28;20721;-67
2023/08/15 06:14:11;;;;;;;10.80;10.40;;;18.90;99.90;;;;;;5030473;28;20474;-66
2023/08/15 06:16:38;;;;;;;10.17;9.77;;;19.00;99.90;;;;;;5021347;28;20469;-65
2023/08/15 06:19:05;;;;;;;10.10;9.70;;;19.00;99.90;;;;;;5016914;28;20461;-66
2023/08/15 06:21:32;;;;;;;10.20;9.80;;;19.10;99.90;;;;;;5030471;28;20461;-67
2023/08/15 06:23:59;;;;;;;10.03;9.63;;;19.10;99.90;;;;;;5040493;28;20502;-67
2023/08/15 06:26:26;;;;;;;9.70;9.40;;;19.20;99.90;;;;;;5023823;28;20475;-67
2023/08/15 06:28:53;;;;;;;9.90;9.50;;;19.20;99.90;;;;;;5022108;28;20523;-67
2023/08/15 06:31:21;;;;;;;9.20;8.90;;;19.10;99.90;;;;;;5019340;28;20477;-66
2023/08/15 06:33:47;;;;;;;8.70;8.40;;;19.30;99.90;;;;;;5025033;28;20476;-66
2023/08/15 06:36:15;;;;;;;8.30;8.00;;;19.40;99.90;;;;;;5014497;28;20611;-66
2023/08/15 06:38:42;;;;;;;8.00;7.70;;;19.50;99.90;;;;;;5031516;28;20467;-67
2023/08/15 06:41:09;;;;;;;8.30;8.00;;;19.60;99.90;;;;;;5023541;28;20544;-67
2023/08/15 06:43:36;;;;;;;8.13;7.83;;;19.70;99.90;;;;;;5029112;28;20456;-67
2023/08/15 06:46:04;;;;;;;7.80;7.50;;;19.80;99.90;;;;;;5037560;28;20549;-66
2023/08/15 06:48:32;;;;;;;8.13;7.83;;;19.90;99.90;;;;;;5024339;28;20513;-66
2023/08/15 06:50:59;;;;;;;7.77;7.47;;;19.90;99.90;;;;;;5020764;28;20468;-66
2023/08/15 06:53:26;;;;;;;8.10;7.80;;;19.90;99.90;;;;;;5023117;28;20458;-66
2023/08/15 06:55:54;;;;;;;7.70;7.40;;;20.00;99.90;;;;;;5027890;28;20460;-67
2023/08/15 06:58:22;;;;;;;7.10;6.90;;;20.00;99.90;;;;;;5028270;28;20542;-66
2023/08/15 07:00:49;;;;;;;7.33;7.13;;;20.10;99.90;;;;;;5026306;28;20473;-67
2023/08/15 07:03:17;;;;;;;7.47;7.20;;;20.20;99.90;;;;;;5026746;28;20471;-66
2023/08/15 07:05:46;;;;;;;7.10;6.90;;;20.20;99.90;;;;;;5019546;28;21053;-66
2023/08/15 07:08:13;;;;;;;7.30;7.10;;;20.30;99.90;;;;;;5026427;28;20587;-67
2023/08/15 07:10:41;;;;;;;7.50;7.20;;;20.30;99.90;;;;;;5031678;28;20483;-66
2023/08/15 07:13:08;;;;;;;7.90;7.60;;;20.30;99.90;;;;;;5025119;28;20480;-67
2023/08/15 07:15:35;;;;;;;7.80;7.50;;;20.40;99.90;;;;;;5024283;28;20881;-66
2023/08/15 07:18:02;;;;;;;8.00;7.70;;;20.50;99.90;;;;;;5017778;28;20588;-66
2023/08/15 07:20:29;;;;;;;8.20;7.90;;;20.50;99.90;;;;;;5021356;28;20465;-65
2023/08/15 07:22:57;;;;;;;8.50;8.20;;;20.40;99.90;;;;;;5027400;28;20456;-66
2023/08/15 07:25:25;;;;;;;8.70;8.40;;;20.40;99.90;;;;;;5030062;28;20467;-65
2023/08/15 07:27:53;;;;;;;9.10;8.80;;;20.40;99.90;;;;;;5023702;28;20488;-66
2023/08/15 07:30:19;;;;;;;8.70;8.40;;;20.40;99.90;;;;;;5030731;28;20828;-66
2023/08/15 07:32:46;;;;;;;9.87;9.27;;;20.50;99.90;;;;;;5016156;28;20468;-66
2023/08/15 07:35:14;;;;;;;9.00;8.70;;;20.50;99.90;;;;;;5022268;28;20460;-66
2023/08/15 07:37:43;;;;;;;9.00;8.70;;;20.50;99.90;;;;;;5023161;28;20477;-66
2023/08/15 07:40:20;;;;;;;9.30;8.90;;;20.60;99.90;;;;;;5022540;28;20457;-66
2023/08/15 07:42:49;;;;;;;8.77;8.47;;;20.80;99.90;;;;;;5012375;28;20467;-67
2023/08/15 07:45:16;;;;;;;9.00;8.70;;;20.90;99.90;;;;;;5022507;28;20457;-66
2023/08/15 07:47:43;;;;;;;9.40;9.10;;;21.10;99.90;;;;;;5027246;28;20492;-66
2023/08/15 07:50:15;;;;;;;9.20;8.90;;;21.20;99.90;;;;;;5021728;28;20465;-66
2023/08/15 07:52:42;;;;;;;9.10;8.80;;;21.30;99.90;;;;;;5024158;28;20701;-66
2023/08/15 07:55:11;;;;;;;9.83;9.53;;;21.30;99.90;;;;;;5021009;28;20496;-67
2023/08/15 07:57:38;;;;;;;10.13;9.73;;;21.50;99.90;;;;;;5027664;28;20464;-67
2023/08/15 08:00:08;;;;;;;9.80;9.40;;;21.50;99.90;;;;;;5022088;28;20785;-66
2023/08/15 08:02:35;;;;;;;10.00;9.60;;;21.50;99.90;;;;;;5026585;28;20534;-65
2023/08/15 08:05:06;;;;;;;10.80;10.40;;;21.60;99.90;;;;;;5025710;28;20562;-67
2023/08/15 08:07:33;;;;;;;11.10;10.70;;;21.80;99.90;;;;;;5024626;28;20520;-67
2023/08/15 08:10:00;;;;;;;11.53;11.10;;;21.80;99.90;;;;;;5027526;28;20459;-66
2023/08/15 08:12:30;;;;;;;11.50;11.10;;;21.90;99.90;;;;;;5021402;28;20499;-66
2023/08/15 08:14:57;;;;;;;12.00;11.50;;;22.00;99.90;;;;;;5018674;28;20465;-67
2023/08/15 08:17:25;;;;;;;12.10;11.60;;;22.10;99.90;;;;;;5028399;28;20823;-66
2023/08/15 08:19:52;;;;;;;12.90;12.30;;;22.20;99.90;;;;;;5028213;28;20844;-66
2023/08/15 08:22:19;;;;;;;12.40;11.90;;;22.30;99.90;;;;;;5023578;28;20557;-65
2023/08/15 08:24:47;;;;;;;12.70;12.20;;;22.40;99.90;;;;;;5028797;28;20483;-65
2023/08/15 08:27:14;;;;;;;13.20;12.70;;;22.50;99.90;;;;;;5022256;28;20592;-66
2023/08/15 08:29:42;;;;;;;12.90;12.40;;;22.40;99.90;;;;;;5029554;28;20493;-66
2023/08/15 08:32:09;;;;;;;12.60;12.10;;;22.60;99.90;;;;;;5029450;28;20468;-66
2023/08/15 08:34:36;;;;;;;12.60;12.10;;;22.80;99.90;;;;;;5030327;28;20465;-66
2023/08/15 08:37:04;;;;;;;12.80;12.30;;;22.90;99.90;;;;;;5024619;28;20504;-66
2023/08/15 08:39:31;;;;;;;12.80;12.30;;;22.90;99.90;;;;;;5021427;28;20464;-65
2023/08/15 08:41:59;;;;;;;13.33;12.83;;;23.00;99.90;;;;;;5021896;28;20477;-67
2023/08/15 08:44:27;;;;;;;12.60;12.10;;;23.10;99.90;;;;;;5032382;28;20464;-66
2023/08/15 08:46:55;;;;;;;12.90;12.40;;;23.40;99.90;;;;;;5024235;28;20963;-66
2023/08/15 08:49:24;;;;;;;13.30;12.70;;;23.80;99.90;;;;;;5028516;28;20507;-67
2023/08/15 08:51:52;;;;;;;13.63;13.07;;;24.30;99.90;;;;;;5030165;28;20456;-66
2023/08/15 08:54:19;;;;;;;14.40;13.80;;;25.00;99.90;;;;;;5019822;28;20480;-67
2023/08/15 08:56:50;;;;;;;14.03;13.43;;;25.70;99.90;;;;;;5028365;28;20460;-67
2023/08/15 08:59:21;;;;;;;14.80;14.20;;;26.70;99.90;;;;;;5018320;28;20461;-67
2023/08/15 09:01:48;;;;;;;16.00;15.30;;;27.60;99.90;;;;;;5024851;28;20547;-67
2023/08/15 09:04:18;;;;;;;16.33;15.63;;;27.80;99.90;;;;;;5022774;28;20465;-67
2023/08/15 09:06:46;;;;;;;15.50;14.90;;;27.90;99.90;;;;;;5026046;28;20468;-67
2023/08/15 09:09:13;;;;;;;16.17;15.47;;;28.60;99.90;;;;;;5019101;28;20492;-66
2023/08/15 09:11:41;;;;;;;16.10;15.40;;;29.10;99.90;;;;;;5027468;28;20547;-67
2023/08/15 09:14:08;;;;;;;15.53;14.83;;;29.80;99.90;;;;;;5014139;28;20465;-66
2023/08/15 09:16:45;;;;;;;16.07;15.37;;;30.60;99.90;;;;;;5033513;28;20463;-67
2023/08/15 09:19:12;;;;;;;16.50;15.80;;;30.80;99.90;;;;;;5030127;28;20471;-67
2023/08/15 09:21:40;;;;;;;15.90;15.20;;;30.70;99.90;;;;;;5031817;28;20983;-67
2023/08/15 09:24:08;;;;;;;16.17;15.47;;;31.00;99.90;;;;;;5022983;28;20963;-68
2023/08/15 09:26:36;;;;;;;16.30;15.60;;;31.30;99.90;;;;;;5013751;28;20503;-68
2023/08/15 09:29:04;;;;;;;16.10;15.40;;;31.10;99.90;;;;;;5024334;28;20488;-67
2023/08/15 09:31:32;;;;;;;15.90;15.20;;;30.80;99.90;;;;;;5028572;28;20587;-67
2023/08/15 09:33:59;;;;;;;16.10;15.40;;;30.80;99.90;;;;;;5029010;28;20817;-67
2023/08/15 09:36:27;;;;;;;16.00;15.40;;;30.50;99.90;;;;;;5027002;28;20939;-67
2023/08/15 09:38:57;;;;;;;15.70;15.10;;;30.10;99.90;;;;;;5023764;28;20482;-67
2023/08/15 09:41:25;;;;;;;25.83;16.63;;;30.60;99.90;;;;;;5023168;28;20835;-66
2023/08/15 09:43:53;;;;;;;15.93;15.33;;;30.40;99.90;;;;;;5029128;28;20464;-67
2023/08/15 09:46:21;;;;;;;16.23;15.53;;;30.30;99.90;;;;;;5034262;28;20453;-68
2023/08/15 09:48:49;;;;;;;16.40;15.70;;;30.90;99.90;;;;;;5029643;28;20512;-66
2023/08/15 09:51:18;;;;;;;15.60;15.00;;;31.20;99.90;;;;;;5027089;28;20492;-67
2023/08/15 09:53:46;;;;;;;14.90;14.40;;;31.20;99.90;;;;;;5015035;28;20588;-66
2023/08/15 09:56:16;;;;;;;15.50;14.90;;;32.00;99.90;;;;;;5029154;28;20460;-67
2023/08/15 09:58:43;;;;;;;14.60;14.10;;;32.60;99.90;;;;;;5032104;28;20881;-66
2023/08/15 10:01:14;;;;;;;15.00;14.50;;;33.50;99.90;;;;;;5032946;28;20544;-67
2023/08/15 10:03:43;;;;;;;15.20;14.70;;;34.00;99.90;;;;;;5024186;28;20768;-67
2023/08/15 10:06:12;;;;;;;14.80;14.30;;;33.20;99.90;;;;;;5025874;28;20543;-67
2023/08/15 10:08:40;;;;;;;14.90;14.40;;;33.00;99.90;;;;;;5020827;28;20493;-67
2023/08/15 10:11:09;;;;;;;15.80;15.20;;;32.60;99.90;;;;;;5021866;28;20980;-67
2023/08/15 10:13:39;;;;;;;16.10;15.50;;;31.80;99.90;;;;;;5029215;28;20582;-68
2023/08/15 10:16:07;;;;;;;15.53;15.03;;;30.80;99.90;;;;;;5028220;28;20465;-67
2023/08/15 10:18:35;;;;;;;15.57;15.07;;;30.80;99.90;;;;;;5024880;28;20470;-67
2023/08/15 10:21:02;;;;;;;16.13;15.53;;;31.00;99.90;;;;;;5028986;28;20476;-68
2023/08/15 10:23:30;;;;;;;14.90;14.40;;;30.40;99.90;;;;;;5024975;28;20468;-68
2023/08/15 10:25:58;;;;;;;15.50;15.00;;;31.10;99.90;;;;;;5026138;28;20468;-68
2023/08/15 10:28:27;;;;;;;16.00;15.40;;;31.70;99.90;;;;;;5018925;28;20476;-69
2023/08/15 10:30:56;;;;;;;15.27;14.77;;;31.00;99.90;;;;;;5026379;28;20551;-68
2023/08/15 10:33:24;;;;;;;15.47;14.97;;;30.70;99.90;;;;;;5027208;28;20468;-68
2023/08/15 10:36:05;;;;;;;15.10;14.60;;;30.70;99.90;;;;;;5033452;28;20544;-68
2023/08/15 10:38:35;;;;;;;15.20;14.70;;;31.00;99.90;;;;;;5020465;28;20465;-67
2023/08/15 10:41:03;;;;;;;15.60;15.10;;;31.10;99.90;;;;;;5029226;28;20469;-67
2023/08/15 10:43:32;;;;;;;16.27;15.67;;;30.80;99.90;;;;;;5027191;28;20475;-67
2023/08/15 10:46:02;;;;;;;15.33;14.83;;;31.40;99.90;;;;;;5012898;28;20539;-69
2023/08/15 10:48:43;;;;;;;16.10;15.60;;;31.10;99.90;;;;;;5022322;28;20852;-67
2023/08/15 10:51:18;;;;;;;15.50;15.00;;;31.30;99.90;;;;;;5025454;28;20608;-67
2023/08/15 10:53:47;;;;;;;15.63;15.13;;;31.40;99.90;;;;;;5019543;28;20500;-68
2023/08/15 10:56:17;;;;;;;15.20;14.70;;;31.50;99.90;;;;;;5021353;28;21180;-68
2023/08/15 10:58:45;;;;;;;15.87;15.37;;;31.60;99.90;;;;;;5019836;28;20476;-67
2023/08/15 11:01:16;;;;;;;15.70;15.20;;;32.10;99.90;;;;;;5020291;28;20457;-66
2023/08/15 11:03:45;;;;;;;16.80;16.20;;;32.60;99.90;;;;;;5031952;28;20499;-66
2023/08/15 11:06:12;;;;;;;17.30;16.70;;;32.70;99.90;;;;;;5034612;28;20471;-68
2023/08/15 11:08:43;;;;;;;17.00;16.40;;;31.90;99.90;;;;;;5028188;28;20717;-66
2023/08/15 11:11:11;;;;;;;16.40;15.83;;;31.90;99.90;;;;;;5018309;28;20606;-68
2023/08/15 11:13:39;;;;;;;15.80;15.30;;;32.40;99.90;;;;;;5026107;28;20849;-67
2023/08/15 11:16:07;;;;;;;17.20;16.60;;;32.40;99.90;;;;;;5029723;28;20536;-66
2023/08/15 11:18:36;;;;;;;16.67;16.07;;;32.30;99.90;;;;;;5026443;28;20456;-66
2023/08/15 11:21:03;;;;;;;16.50;16.00;;;31.50;99.90;;;;;;5025023;28;20480;-66
2023/08/15 11:23:31;;;;;;;17.10;16.50;;;31.20;99.90;;;;;;5025291;28;20473;-67
2023/08/15 11:26:02;;;;;;;15.87;15.37;;;31.20;99.90;;;;;;5032446;28;20513;-67
2023/08/15 11:28:30;;;;;;;15.73;15.23;;;31.60;99.90;;;;;;5023203;28;20782;-66
2023/08/15 11:30:57;;;;;;;15.90;15.40;;;31.80;99.90;;;;;;5023328;28;20556;-67
2023/08/15 11:33:25;;;;;;;16.10;15.60;;;32.10;99.90;;;;;;5018622;28;20468;-67
2023/08/15 11:35:55;;;;;;;14.57;14.17;;;32.00;99.90;;;;;;4980174;28;20825;-66
2023/08/15 11:38:22;;;;;;;15.30;14.80;;;32.20;99.90;;;;;;4985148;28;20470;-66
2023/08/15 11:40:49;;;;;;;15.53;15.03;;;32.40;99.90;;;;;;4977391;28;20502;-67
2023/08/15 11:43:17;;;;;;;15.20;14.70;;;33.00;99.90;;;;;;4983150;28;20473;-68
2023/08/15 11:45:45;;;;;;;15.77;15.27;;;33.10;99.90;;;;;;4984850;28;20470;-67
2023/08/15 11:48:11;;;;;;;15.37;14.87;;;33.80;99.90;;;;;;4987044;28;20465;-67
2023/08/15 11:50:40;;;;;;;14.50;14.10;;;34.00;99.90;;;;;;4985907;28;21047;-68
2023/08/15 11:53:11;;;;;;;14.80;14.40;;;34.50;99.90;;;;;;4984349;28;20462;-67
2023/08/15 11:55:39;;;;;;;15.20;14.70;;;34.50;99.90;;;;;;4960110;28;20839;-69
2023/08/15 11:58:22;;;;;;;15.20;14.70;;;34.60;99.90;;;;;;4965096;28;20459;-68
2023/08/15 12:00:51;;;;;;;15.20;14.70;;;33.90;99.90;;;;;;4962455;28;20471;-68
2023/08/15 12:03:18;;;;;;;15.77;15.27;;;33.10;99.90;;;;;;4962280;28;20483;-67
2023/08/15 12:05:46;;;;;;;15.53;15.03;;;32.80;99.90;;;;;;4966894;28;20456;-68
2023/08/15 12:08:16;;;;;;;15.73;15.23;;;33.30;99.90;;;;;;4966612;28;21153;-68
2023/08/15 12:10:44;;;;;;;15.80;15.30;;;33.30;99.90;;;;;;4963404;28;20593;-69
2023/08/15 12:13:11;;;;;;;15.33;14.83;;;33.80;99.90;;;;;;4966822;28;20487;-68
2023/08/15 12:15:38;;;;;;;15.10;14.60;;;34.20;99.90;;;;;;4963144;28;20491;-68
2023/08/15 12:18:06;;;;;;;14.70;14.30;;;34.60;99.90;;;;;;4960740;28;20474;-68
2023/08/15 12:20:33;;;;;;;14.57;14.17;;;34.30;99.90;;;;;;4966279;28;20522;-69
2023/08/15 12:23:00;;;;;;;14.40;14.00;;;33.20;99.90;;;;;;4966220;28;20468;-68
2023/08/15 12:25:28;;;;;;;14.67;14.27;;;33.70;99.90;;;;;;4959592;28;20460;-68
2023/08/15 12:27:55;;;;;;;15.00;14.50;;;33.60;99.90;;;;;;4965475;28;20853;-68
2023/08/15 12:30:22;;;;;;;15.57;15.07;;;33.40;99.90;;;;;;4966111;28;21088;-68
2023/08/15 12:32:49;;;;;;;15.67;15.17;;;33.10;99.90;;;;;;4963270;28;20467;-68
2023/08/15 12:35:16;;;;;;;15.30;14.80;;;32.90;99.90;;;;;;4964375;28;20467;-69
2023/08/15 12:37:42;;;;;;;15.30;14.80;;;32.90;99.90;;;;;;4966169;28;20463;-68
2023/08/15 12:40:10;;;;;;;15.47;14.97;;;32.60;99.90;;;;;;4967070;28;20738;-68